Time;durP1;ratioP1;P1;durP2;ratioP2;P2;SDS_P1;SDS_P2;PMS_P1;PMS_P2;Temp;Humidity;BMP_temperature;BMP_pressure;BME280_temperature;BME280_humidity;BME280_pressure;Samples;Min_cycle;Max_cycle;Signal;HPM_P1;HPM_P2
2021/03/19 00:02:30;;;;;;;1999.90;999.90;;;;;;;;;;5076399;28;20334;-37
2021/03/19 00:05:17;;;;;;;1999.90;999.90;;;;;;;;;;5076901;28;20196;-33
2021/03/19 00:08:03;;;;;;;1999.90;999.90;;;;;;;;;;5076947;28;20605;-38
2021/03/19 00:10:49;;;;;;;1999.90;999.90;;;;;;;;;;5077201;28;20262;-35
2021/03/19 00:13:34;;;;;;;1999.90;999.90;;;;;;;;;;5076748;28;20763;-33
2021/03/19 00:16:21;;;;;;;1999.90;999.90;;;;;;;;;;5077235;28;20204;-35
2021/03/19 00:19:09;;;;;;;1999.90;999.90;;;;;;;;;;5077046;28;20350;-39
2021/03/19 00:21:55;;;;;;;1999.90;999.90;;;;;;;;;;5076827;28;20199;-37
2021/03/19 00:24:40;;;;;;;1999.90;999.90;;;;;;;;;;5076706;28;20200;-37
2021/03/19 00:27:26;;;;;;;1999.90;999.90;;;;;;;;;;5076987;28;20239;-34
2021/03/19 00:30:13;;;;;;;1999.90;999.90;;;;;;;;;;5077136;28;20211;-34
2021/03/19 00:32:58;;;;;;;1999.90;999.90;;;;;;;;;;5077076;28;20199;-32
2021/03/19 00:35:47;;;;;;;1999.90;999.90;;;;;;;;;;5076784;28;20200;-33
2021/03/19 00:38:33;;;;;;;1999.90;999.90;;;;;;;;;;5076589;28;20228;-35
2021/03/19 00:41:19;;;;;;;1999.90;999.90;;;;;;;;;;5076942;28;20192;-34
2021/03/19 00:44:06;;;;;;;1999.90;999.90;;;;;;;;;;5076999;28;20195;-33
2021/03/19 00:46:52;;;;;;;1999.90;999.90;;;;;;;;;;5076500;28;20699;-32
2021/03/19 00:49:37;;;;;;;1999.90;999.90;;;;;;;;;;5076463;28;20196;-37
2021/03/19 00:52:24;;;;;;;1999.90;999.90;;;;;;;;;;5076487;28;20219;-33
2021/03/19 00:55:12;;;;;;;1999.90;999.90;;;;;;;;;;5076689;28;20203;-35
2021/03/19 00:58:00;;;;;;;1999.90;999.90;;;;;;;;;;5076408;28;20233;-34
2021/03/19 01:00:46;;;;;;;1999.90;999.90;;;;;;;;;;5076423;28;20354;-35
2021/03/19 01:03:35;;;;;;;1999.90;999.90;;;;;;;;;;5076603;28;20199;-32
2021/03/19 01:06:21;;;;;;;1999.90;999.90;;;;;;;;;;5076636;28;20207;-32
2021/03/19 01:09:06;;;;;;;1999.90;999.90;;;;;;;;;;5076223;28;20195;-38
2021/03/19 01:11:52;;;;;;;1999.90;999.90;;;;;;;;;;5076324;28;20207;-36
2021/03/19 01:14:37;;;;;;;1999.90;999.90;;;;;;;;;;5080157;28;20517;-32
2021/03/19 01:17:24;;;;;;;1999.90;999.90;;;;;;;;;;5080276;28;20461;-32
2021/03/19 01:20:14;;;;;;;1999.90;999.90;;;;;;;;;;5080108;28;20597;-34
2021/03/19 01:23:00;;;;;;;1999.90;999.90;;;;;;;;;;5080285;28;20724;-36
2021/03/19 01:25:46;;;;;;;1999.90;999.90;;;;;;;;;;5080066;28;20450;-34
2021/03/19 01:28:32;;;;;;;1999.90;999.90;;;;;;;;;;5079795;28;20583;-34
2021/03/19 01:31:19;;;;;;;1999.90;999.90;;;;;;;;;;5080057;28;20437;-34
2021/03/19 01:34:07;;;;;;;1999.90;999.90;;;;;;;;;;5080028;28;20228;-36
2021/03/19 01:36:54;;;;;;;1999.90;999.90;;;;;;;;;;5080059;28;20262;-32
2021/03/19 01:39:40;;;;;;;1999.90;999.90;;;;;;;;;;5079597;28;20481;-32
2021/03/19 01:42:26;;;;;;;1999.90;999.90;;;;;;;;;;5079901;28;20449;-34
2021/03/19 01:45:30;;;;;;;1999.90;999.90;;;;;;;;;;5079570;28;20199;-35
2021/03/19 01:48:35;;;;;;;1999.90;999.90;;;;;;;;;;5079793;28;20262;-34
2021/03/19 01:51:39;;;;;;;1999.90;999.90;;;;;;;;;;5079547;28;20445;-34
2021/03/19 01:54:43;;;;;;;1999.90;999.90;;;;;;;;;;5073560;28;20457;-33
2021/03/19 01:58:05;;;;;;;1999.90;999.90;;;;;;;;;;5070170;28;20576;-36
2021/03/19 02:01:08;;;;;;;1999.90;999.90;;;;;;;;;;5078980;28;20442;-34
2021/03/19 02:04:17;;;;;;;1999.90;999.90;;;;;;;;;;5079208;28;20442;-34
2021/03/19 02:07:21;;;;;;;1999.90;999.90;;;;;;;;;;5079468;28;20478;-32
2021/03/19 02:10:28;;;;;;;1999.90;999.90;;;;;;;;;;5078997;28;20446;-34
2021/03/19 02:13:33;;;;;;;1999.90;999.90;;;;;;;;;;5079089;28;20539;-32
2021/03/19 02:16:37;;;;;;;1999.90;999.90;;;;;;;;;;5078604;28;20445;-37
2021/03/19 02:19:41;;;;;;;1999.90;999.90;;;;;;;;;;5078695;28;20474;-33
2021/03/19 02:22:46;;;;;;;1999.90;999.90;;;;;;;;;;5078973;28;20916;-32
2021/03/19 02:25:50;;;;;;;1999.90;999.90;;;;;;;;;;5077736;28;20588;-37
2021/03/19 02:28:54;;;;;;;1999.90;999.90;;;;;;;;;;5078877;28;20450;-32
2021/03/19 02:31:54;;;;;;;1999.90;999.90;;;;;;;;;;5078682;28;20592;-33
2021/03/19 02:34:44;;;;;;;1999.90;999.90;;;;;;;;;;5078902;28;20441;-32
2021/03/19 02:37:31;;;;;;;1999.90;999.90;;;;;;;;;;5078647;28;20492;-35
2021/03/19 02:40:17;;;;;;;1999.90;999.90;;;;;;;;;;5078562;28;20450;-32
2021/03/19 02:43:06;;;;;;;1999.90;999.90;;;;;;;;;;5078453;28;20540;-32
2021/03/19 02:45:52;;;;;;;1999.90;999.90;;;;;;;;;;5078471;28;20442;-37
2021/03/19 02:48:39;;;;;;;1999.90;999.90;;;;;;;;;;5078379;28;20729;-33
2021/03/19 02:51:27;;;;;;;1999.90;999.90;;;;;;;;;;5078398;28;20543;-35
2021/03/19 02:54:13;;;;;;;1999.90;999.90;;;;;;;;;;5077947;28;20441;-36
2021/03/19 02:56:59;;;;;;;1999.90;999.90;;;;;;;;;;5078046;28;20438;-32
2021/03/19 02:59:44;;;;;;;1999.90;999.90;;;;;;;;;;5077967;28;20493;-33
2021/03/19 03:02:30;;;;;;;1999.90;999.90;;;;;;;;;;5078384;28;20442;-34
2021/03/19 03:05:18;;;;;;;1999.90;999.90;;;;;;;;;;5078057;28;20871;-33
2021/03/19 03:08:04;;;;;;;1999.90;999.90;;;;;;;;;;5078362;28;20501;-34
2021/03/19 03:10:51;;;;;;;1999.90;999.90;;;;;;;;;;5077977;28;20448;-33
2021/03/19 03:13:36;;;;;;;1999.90;999.90;;;;;;;;;;5077778;28;20776;-32
2021/03/19 03:16:24;;;;;;;1999.90;999.90;;;;;;;;;;5077949;28;20442;-32
2021/03/19 03:19:11;;;;;;;1999.90;999.90;;;;;;;;;;5077772;28;20486;-32
2021/03/19 03:21:58;;;;;;;1999.90;999.90;;;;;;;;;;5077652;28;20438;-31
2021/03/19 03:24:44;;;;;;;1999.90;999.90;;;;;;;;;;5077674;28;20445;-36
2021/03/19 03:27:29;;;;;;;1999.90;999.90;;;;;;;;;;5077431;28;20477;-33
2021/03/19 03:30:19;;;;;;;1999.90;999.90;;;;;;;;;;5077468;28;20934;-33
2021/03/19 03:33:04;;;;;;;1999.90;999.90;;;;;;;;;;5077434;28;20508;-31
2021/03/19 03:35:52;;;;;;;1999.90;999.90;;;;;;;;;;5077059;28;20442;-32
2021/03/19 03:38:39;;;;;;;1999.90;999.90;;;;;;;;;;5077501;28;21011;-37
2021/03/19 03:41:25;;;;;;;1999.90;999.90;;;;;;;;;;5077592;28;20528;-35
2021/03/19 03:44:13;;;;;;;1999.90;999.90;;;;;;;;;;5077488;28;20445;-35
2021/03/19 03:47:00;;;;;;;1999.90;999.90;;;;;;;;;;5077175;28;20453;-33
2021/03/19 03:49:45;;;;;;;1999.90;999.90;;;;;;;;;;5077184;28;20442;-32
2021/03/19 03:52:31;;;;;;;1999.90;999.90;;;;;;;;;;5077524;28;20446;-31
2021/03/19 03:55:19;;;;;;;1999.90;999.90;;;;;;;;;;5077320;28;20434;-34
2021/03/19 03:58:05;;;;;;;1999.90;999.90;;;;;;;;;;5077315;28;20512;-31
2021/03/19 04:00:50;;;;;;;1999.90;999.90;;;;;;;;;;5077228;28;20817;-31
2021/03/19 04:03:37;;;;;;;1999.90;999.90;;;;;;;;;;5077055;28;20608;-32
2021/03/19 04:06:23;;;;;;;1999.90;999.90;;;;;;;;;;5077147;28;20741;-32
2021/03/19 04:09:09;;;;;;;1999.90;999.90;;;;;;;;;;5076948;28;20756;-33
2021/03/19 04:11:55;;;;;;;1999.90;999.90;;;;;;;;;;5077061;28;20612;-31
2021/03/19 04:14:41;;;;;;;1999.90;999.90;;;;;;;;;;5077192;28;20918;-32
2021/03/19 04:17:27;;;;;;;1999.90;999.90;;;;;;;;;;5077290;28;20450;-33
2021/03/19 04:20:17;;;;;;;1999.90;999.90;;;;;;;;;;5076938;28;20477;-31
2021/03/19 04:23:03;;;;;;;1999.90;999.90;;;;;;;;;;5077197;28;20600;-36
2021/03/19 04:25:49;;;;;;;1999.90;999.90;;;;;;;;;;5076670;28;20454;-32
2021/03/19 04:28:38;;;;;;;1999.90;999.90;;;;;;;;;;5077191;28;20848;-32
2021/03/19 04:31:24;;;;;;;1999.90;999.90;;;;;;;;;;5076785;28;20604;-36
2021/03/19 04:34:10;;;;;;;1999.90;999.90;;;;;;;;;;5076991;28;20508;-33
2021/03/19 04:36:56;;;;;;;1999.90;999.90;;;;;;;;;;5076648;28;20450;-34
2021/03/19 04:39:44;;;;;;;1999.90;999.90;;;;;;;;;;5076861;28;20481;-32
2021/03/19 04:42:29;;;;;;;1999.90;999.90;;;;;;;;;;5076548;28;20454;-32
2021/03/19 04:45:16;;;;;;;1999.90;999.90;;;;;;;;;;5061635;28;20742;-31
2021/03/19 04:48:02;;;;;;;1999.90;999.90;;;;;;;;;;5058103;28;20479;-35
2021/03/19 04:50:49;;;;;;;1999.90;999.90;;;;;;;;;;5060593;28;20540;-36
2021/03/19 04:53:34;;;;;;;1999.90;999.90;;;;;;;;;;5060869;28;20438;-35
2021/03/19 04:56:21;;;;;;;1999.90;999.90;;;;;;;;;;5060801;28;20601;-33
2021/03/19 04:59:06;;;;;;;1999.90;999.90;;;;;;;;;;5060644;28;20653;-34
2021/03/19 05:01:55;;;;;;;1999.90;999.90;;;;;;;;;;5060327;28;20562;-31
2021/03/19 05:04:40;;;;;;;1999.90;999.90;;;;;;;;;;5060375;28;20446;-32
2021/03/19 05:07:26;;;;;;;1999.90;999.90;;;;;;;;;;5060750;28;20608;-34
2021/03/19 05:10:14;;;;;;;1999.90;999.90;;;;;;;;;;5060269;28;20439;-32
2021/03/19 05:13:00;;;;;;;1999.90;999.90;;;;;;;;;;5060373;28;20451;-33
2021/03/19 05:15:46;;;;;;;1999.90;999.90;;;;;;;;;;5060340;28;20443;-32
2021/03/19 05:18:33;;;;;;;1999.90;999.90;;;;;;;;;;5060276;28;20621;-33
2021/03/19 05:21:19;;;;;;;1999.90;999.90;;;;;;;;;;5060012;28;20447;-31
2021/03/19 05:24:07;;;;;;;1999.90;999.90;;;;;;;;;;5060157;28;20467;-31
2021/03/19 05:26:52;;;;;;;1999.90;999.90;;;;;;;;;;5059936;28;20443;-32
2021/03/19 05:29:37;;;;;;;1999.90;999.90;;;;;;;;;;5060124;28;20455;-32
2021/03/19 05:32:23;;;;;;;1999.90;999.90;;;;;;;;;;5059382;28;20451;-31
2021/03/19 05:35:12;;;;;;;1999.90;999.90;;;;;;;;;;5059347;28;20447;-36
2021/03/19 05:37:58;;;;;;;1999.90;999.90;;;;;;;;;;5060004;28;20450;-31
2021/03/19 05:40:44;;;;;;;1999.90;999.90;;;;;;;;;;5059941;28;20570;-33
2021/03/19 05:43:33;;;;;;;1999.90;999.90;;;;;;;;;;5059705;28;20442;-31
2021/03/19 05:46:23;;;;;;;1999.90;999.90;;;;;;;;;;5059766;28;20446;-35
2021/03/19 05:49:13;;;;;;;1999.90;999.90;;;;;;;;;;5059724;28;20443;-35
2021/03/19 05:52:13;;;;;;;1999.90;999.90;;;;;;;;;;5059736;28;20526;-40
2021/03/19 05:54:59;;;;;;;1999.90;999.90;;;;;;;;;;5059562;28;20567;-34
2021/03/19 05:57:45;;;;;;;1999.90;999.90;;;;;;;;;;5059017;28;20447;-33
2021/03/19 06:00:30;;;;;;;1999.90;999.90;;;;;;;;;;5057700;28;21011;-34
2021/03/19 06:03:19;;;;;;;1999.90;999.90;;;;;;;;;;5059242;28;20447;-34
2021/03/19 06:06:06;;;;;;;1999.90;999.90;;;;;;;;;;5058851;28;20442;-33
2021/03/19 06:08:52;;;;;;;1999.90;999.90;;;;;;;;;;5059220;28;20537;-32
2021/03/19 06:11:48;;;;;;;1999.90;999.90;;;;;;;;;;5058978;28;20856;-31
2021/03/19 06:14:45;;;;;;;1999.90;999.90;;;;;;;;;;5058832;28;20483;-33
2021/03/19 06:17:33;;;;;;;1999.90;999.90;;;;;;;;;;5058902;28;20446;-34
2021/03/19 06:20:20;;;;;;;1999.90;999.90;;;;;;;;;;5058559;28;20538;-35
2021/03/19 06:23:06;;;;;;;1999.90;999.90;;;;;;;;;;5058574;28;20510;-32
2021/03/19 06:26:00;;;;;;;1999.90;999.90;;;;;;;;;;5060833;28;20591;-32
2021/03/19 06:28:48;;;;;;;1999.90;999.90;;;;;;;;;;5078461;28;20466;-35
2021/03/19 06:31:34;;;;;;;1999.90;999.90;;;;;;;;;;5078238;28;20447;-34
2021/03/19 06:34:23;;;;;;;1999.90;999.90;;;;;;;;;;5078165;28;20451;-33
2021/03/19 06:37:11;;;;;;;1999.90;999.90;;;;;;;;;;5076829;28;20289;-33
2021/03/19 06:39:57;;;;;;;1999.90;999.90;;;;;;;;;;5078072;28;20226;-36
2021/03/19 06:42:44;;;;;;;1999.90;999.90;;;;;;;;;;5078384;28;20196;-32
2021/03/19 06:45:29;;;;;;;1999.90;999.90;;;;;;;;;;5071230;28;20212;-32
2021/03/19 06:48:29;;;;;;;1999.90;999.90;;;;;;;;;;5057687;28;20623;-36
2021/03/19 06:51:24;;;;;;;1999.90;999.90;;;;;;;;;;5057683;28;20208;-32
2021/03/19 06:54:13;;;;;;;1999.90;999.90;;;;;;;;;;5058325;28;20201;-34
2021/03/19 06:57:01;;;;;;;1999.90;999.90;;;;;;;;;;5058084;28;20619;-33
2021/03/19 06:59:48;;;;;;;1999.90;999.90;;;;;;;;;;5063148;28;20285;-35
2021/03/19 07:02:51;;;;;;;1999.90;999.90;;;;;;;;;;5057708;28;20251;-36
2021/03/19 07:05:40;;;;;;;1999.90;999.90;;;;;;;;;;5057809;28;20343;-34
2021/03/19 07:08:33;;;;;;;1999.90;999.90;;;;;;;;;;5061503;28;20458;-33
2021/03/19 07:11:38;;;;;;;1999.90;999.90;;;;;;;;;;5073427;28;20614;-34
2021/03/19 07:14:43;;;;;;;1999.90;999.90;;;;;;;;;;5077856;28;20237;-33
2021/03/19 07:17:46;;;;;;;1999.90;999.90;;;;;;;;;;5066575;28;20663;-34
2021/03/19 07:20:47;;;;;;;1999.90;999.90;;;;;;;;;;5074249;28;20221;-32
2021/03/19 07:23:42;;;;;;;1999.90;999.90;;;;;;;;;;5077651;28;20727;-34
2021/03/19 07:26:30;;;;;;;1999.90;999.90;;;;;;;;;;5077378;28;20275;-33
2021/03/19 07:29:23;;;;;;;1999.90;999.90;;;;;;;;;;5076726;28;20202;-34
2021/03/19 07:32:18;;;;;;;1999.90;999.90;;;;;;;;;;5077419;28;20203;-33
2021/03/19 07:35:17;;;;;;;1999.90;999.90;;;;;;;;;;5077165;28;20617;-34
2021/03/19 07:38:21;;;;;;;1999.90;999.90;;;;;;;;;;5077377;28;20240;-34
2021/03/19 07:41:14;;;;;;;1999.90;999.90;;;;;;;;;;5077254;28;20206;-31
2021/03/19 07:44:05;;;;;;;1999.90;999.90;;;;;;;;;;5076624;28;20195;-34
2021/03/19 07:46:55;;;;;;;1999.90;999.90;;;;;;;;;;5077278;28;20206;-33
2021/03/19 07:49:50;;;;;;;1999.90;999.90;;;;;;;;;;5077185;28;20201;-32
2021/03/19 07:52:42;;;;;;;1999.90;999.90;;;;;;;;;;5064873;28;20210;-33
2021/03/19 07:55:32;;;;;;;1999.90;999.90;;;;;;;;;;5076876;28;20360;-36
2021/03/19 07:58:28;;;;;;;1999.90;999.90;;;;;;;;;;5075970;28;20200;-32
2021/03/19 08:01:18;;;;;;;1999.90;999.90;;;;;;;;;;5067843;28;20196;-32
2021/03/19 08:04:11;;;;;;;1999.90;999.90;;;;;;;;;;5073121;28;20605;-34
2021/03/19 08:07:02;;;;;;;1999.90;999.90;;;;;;;;;;5073065;28;20224;-35
2021/03/19 08:09:52;;;;;;;1999.90;999.90;;;;;;;;;;5065739;28;20472;-36
2021/03/19 08:12:41;;;;;;;1999.90;999.90;;;;;;;;;;5059294;28;20207;-36
2021/03/19 08:15:34;;;;;;;1999.90;999.90;;;;;;;;;;5058908;28;20612;-33
2021/03/19 08:18:24;;;;;;;1999.90;999.90;;;;;;;;;;5066615;28;20220;-38
2021/03/19 08:21:18;;;;;;;1999.90;999.90;;;;;;;;;;5065076;28;20543;-35
2021/03/19 08:24:09;;;;;;;1999.90;999.90;;;;;;;;;;5063924;28;20200;-33
2021/03/19 08:27:05;;;;;;;1999.90;999.90;;;;;;;;;;5064586;28;20480;-37
2021/03/19 08:29:54;;;;;;;1999.90;999.90;;;;;;;;;;5066960;28;20192;-37
2021/03/19 08:32:47;;;;;;;1999.90;999.90;;;;;;;;;;5064431;28;20279;-35
2021/03/19 08:35:34;;;;;;;1999.90;999.90;;;;;;;;;;5066635;28;20622;-35
2021/03/19 08:38:24;;;;;;;1999.90;999.90;;;;;;;;;;5070645;28;20350;-38
2021/03/19 08:41:16;;;;;;;1999.90;999.90;;;;;;;;;;5076069;28;20494;-36
2021/03/19 08:44:08;;;;;;;1999.90;999.90;;;;;;;;;;5073671;28;20594;-38
2021/03/19 08:47:08;;;;;;;1999.90;999.90;;;;;;;;;;5055578;28;20200;-34
2021/03/19 08:50:00;;;;;;;1999.90;999.90;;;;;;;;;;5072118;28;20249;-35
2021/03/19 08:53:13;;;;;;;1999.90;999.90;;;;;;;;;;5074381;28;20301;-35
2021/03/19 08:56:13;;;;;;;1999.90;999.90;;;;;;;;;;5056464;28;20212;-33
2021/03/19 08:58:59;;;;;;;1999.90;999.90;;;;;;;;;;5055882;28;20220;-33
2021/03/19 09:01:53;;;;;;;1999.90;999.90;;;;;;;;;;5055793;28;20506;-37
2021/03/19 09:05:02;;;;;;;1999.90;999.90;;;;;;;;;;5054851;28;20216;-33
2021/03/19 09:08:08;;;;;;;1999.90;999.90;;;;;;;;;;5055646;28;20219;-33
2021/03/19 09:11:12;;;;;;;1999.90;999.90;;;;;;;;;;5055424;28;20363;-37
2021/03/19 09:14:20;;;;;;;1999.90;999.90;;;;;;;;;;5055261;28;20314;-37
2021/03/19 09:17:07;;;;;;;1999.90;999.90;;;;;;;;;;5055761;28;20205;-34
2021/03/19 09:20:12;;;;;;;1999.90;999.90;;;;;;;;;;5062061;28;20526;-33
2021/03/19 09:23:05;;;;;;;1999.90;999.90;;;;;;;;;;5067788;28;20259;-33
2021/03/19 09:25:52;;;;;;;1999.90;999.90;;;;;;;;;;5055193;28;20195;-35
2021/03/19 09:28:52;;;;;;;1999.90;999.90;;;;;;;;;;5055829;28;20204;-36
2021/03/19 09:31:40;;;;;;;1999.90;999.90;;;;;;;;;;5055148;28;20745;-34
2021/03/19 09:34:49;;;;;;;1999.90;999.90;;;;;;;;;;5060808;28;20613;-38
2021/03/19 09:37:48;;;;;;;1999.90;999.90;;;;;;;;;;5058568;28;20355;-34
2021/03/19 09:40:51;;;;;;;1999.90;999.90;;;;;;;;;;5058587;28;20227;-34
2021/03/19 09:43:44;;;;;;;1999.90;999.90;;;;;;;;;;5058705;28;20331;-33
2021/03/19 09:46:32;;;;;;;1999.90;999.90;;;;;;;;;;5066511;28;20343;-34
2021/03/19 09:49:24;;;;;;;1999.90;999.90;;;;;;;;;;5068775;28;20193;-34
2021/03/19 09:52:11;;;;;;;1999.90;999.90;;;;;;;;;;5066525;28;20281;-35
2021/03/19 09:54:58;;;;;;;1999.90;999.90;;;;;;;;;;5072344;28;20204;-33
2021/03/19 09:58:00;;;;;;;1999.90;999.90;;;;;;;;;;5059253;28;20220;-36
2021/03/19 10:00:53;;;;;;;1999.90;999.90;;;;;;;;;;5059829;28;20472;-34
2021/03/19 10:03:43;;;;;;;1999.90;999.90;;;;;;;;;;5058841;28;20371;-37
2021/03/19 10:06:33;;;;;;;1999.90;999.90;;;;;;;;;;5071197;28;20216;-33
2021/03/19 10:09:20;;;;;;;1999.90;999.90;;;;;;;;;;5078628;28;20715;-36
2021/03/19 10:12:12;;;;;;;1999.90;999.90;;;;;;;;;;5075293;28;20639;-34
2021/03/19 10:15:09;;;;;;;1999.90;999.90;;;;;;;;;;5058736;28;20521;-35
2021/03/19 10:17:55;;;;;;;1999.90;999.90;;;;;;;;;;5058227;28;20586;-38
2021/03/19 10:20:45;;;;;;;1999.90;999.90;;;;;;;;;;5057918;28;20231;-34
2021/03/19 10:23:37;;;;;;;1999.90;999.90;;;;;;;;;;5058602;28;20605;-35
2021/03/19 10:26:26;;;;;;;1999.90;999.90;;;;;;;;;;5059115;28;20359;-34
2021/03/19 10:29:16;;;;;;;1999.90;999.90;;;;;;;;;;5058614;28;20475;-37
2021/03/19 10:32:03;;;;;;;1999.90;999.90;;;;;;;;;;5058239;28;20374;-35
2021/03/19 10:34:51;;;;;;;1999.90;999.90;;;;;;;;;;5058363;28;20216;-36
2021/03/19 10:37:38;;;;;;;1999.90;999.90;;;;;;;;;;5057951;28;20193;-35
2021/03/19 10:40:35;;;;;;;1999.90;999.90;;;;;;;;;;5057818;28;20597;-37
2021/03/19 10:43:24;;;;;;;1999.90;999.90;;;;;;;;;;5058264;28;20204;-35
2021/03/19 10:46:15;;;;;;;1999.90;999.90;;;;;;;;;;5057171;28;20204;-39
2021/03/19 10:49:01;;;;;;;1999.90;999.90;;;;;;;;;;5058286;28;20202;-38
2021/03/19 10:51:50;;;;;;;1999.90;999.90;;;;;;;;;;5058022;28;20610;-34
2021/03/19 10:54:39;;;;;;;1999.90;999.90;;;;;;;;;;5057682;28;20669;-35
2021/03/19 10:57:27;;;;;;;1999.90;999.90;;;;;;;;;;5057562;28;20215;-34
2021/03/19 11:00:38;;;;;;;1999.90;999.90;;;;;;;;;;5057349;28;20633;-35
2021/03/19 11:03:33;;;;;;;1999.90;999.90;;;;;;;;;;5048034;28;20215;-34
2021/03/19 11:06:36;;;;;;;1999.90;999.90;;;;;;;;;;5057726;28;20198;-35
2021/03/19 11:09:22;;;;;;;1999.90;999.90;;;;;;;;;;5057580;28;20279;-33
2021/03/19 11:12:20;;;;;;;1999.90;999.90;;;;;;;;;;5057543;28;20215;-33
2021/03/19 11:15:12;;;;;;;1999.90;999.90;;;;;;;;;;5018123;28;20223;-33
2021/03/19 11:18:14;;;;;;;1999.90;999.90;;;;;;;;;;5017387;28;20201;-32
2021/03/19 11:21:26;;;;;;;1999.90;999.90;;;;;;;;;;5017552;28;20232;-33
2021/03/19 11:24:19;;;;;;;1999.90;999.90;;;;;;;;;;5017848;28;20341;-36
2021/03/19 11:27:17;;;;;;;1999.90;999.90;;;;;;;;;;5017397;28;20626;-38
2021/03/19 11:30:10;;;;;;;1999.90;999.90;;;;;;;;;;5017403;28;20198;-38
2021/03/19 11:33:02;;;;;;;1999.90;999.90;;;;;;;;;;5017172;28;20198;-35
2021/03/19 11:36:12;;;;;;;1999.90;999.90;;;;;;;;;;5017463;28;20262;-38
2021/03/19 11:39:11;;;;;;;1999.90;999.90;;;;;;;;;;5018067;28;20205;-36
2021/03/19 11:42:01;;;;;;;1999.90;999.90;;;;;;;;;;5025385;28;20465;-36
2021/03/19 11:44:49;;;;;;;1999.90;999.90;;;;;;;;;;5029721;28;20210;-36
2021/03/19 11:47:36;;;;;;;1999.90;999.90;;;;;;;;;;5036771;28;20198;-34
2021/03/19 11:50:30;;;;;;;1999.90;999.90;;;;;;;;;;5021278;28;20273;-34
2021/03/19 11:53:21;;;;;;;1999.90;999.90;;;;;;;;;;5017325;28;20198;-35
2021/03/19 11:56:07;;;;;;;1999.90;999.90;;;;;;;;;;5016982;28;20225;-37
2021/03/19 11:58:53;;;;;;;1999.90;999.90;;;;;;;;;;5017099;28;20223;-36
2021/03/19 12:01:39;;;;;;;1999.90;999.90;;;;;;;;;;5017332;28;20351;-35
2021/03/19 12:04:26;;;;;;;1999.90;999.90;;;;;;;;;;5034994;28;20212;-34
2021/03/19 12:07:12;;;;;;;1999.90;999.90;;;;;;;;;;5035661;28;20209;-40
2021/03/19 12:09:57;;;;;;;1999.90;999.90;;;;;;;;;;5036579;28;20295;-36
2021/03/19 12:12:46;;;;;;;1999.90;999.90;;;;;;;;;;5025469;28;20473;-38
2021/03/19 12:15:36;;;;;;;1999.90;999.90;;;;;;;;;;5018343;28;20202;-37
2021/03/19 12:18:24;;;;;;;1999.90;999.90;;;;;;;;;;5016881;28;20202;-35
2021/03/19 12:21:09;;;;;;;1999.90;999.90;;;;;;;;;;5026658;28;20217;-36
2021/03/19 12:23:56;;;;;;;1999.90;999.90;;;;;;;;;;5036467;28;20725;-37
2021/03/19 12:26:42;;;;;;;1999.90;999.90;;;;;;;;;;5049591;28;20209;-38
2021/03/19 12:29:30;;;;;;;1999.90;999.90;;;;;;;;;;5030827;28;20225;-38
2021/03/19 12:32:17;;;;;;;1999.90;999.90;;;;;;;;;;5025961;28;20202;-35
2021/03/19 12:35:06;;;;;;;1999.90;999.90;;;;;;;;;;5032885;28;20618;-34
2021/03/19 12:37:52;;;;;;;1999.90;999.90;;;;;;;;;;5036046;28;20215;-38
2021/03/19 12:40:43;;;;;;;1999.90;999.90;;;;;;;;;;5035959;28;20226;-37
2021/03/19 12:43:35;;;;;;;1999.90;999.90;;;;;;;;;;5034575;28;20352;-38
2021/03/19 12:46:23;;;;;;;1999.90;999.90;;;;;;;;;;5032278;28;20229;-31
2021/03/19 12:49:09;;;;;;;1999.90;999.90;;;;;;;;;;5017754;28;20210;-37
2021/03/19 12:51:55;;;;;;;1999.90;999.90;;;;;;;;;;5016237;28;20194;-34
2021/03/19 12:54:41;;;;;;;1999.90;999.90;;;;;;;;;;5028157;28;20209;-36
2021/03/19 12:57:28;;;;;;;1999.90;999.90;;;;;;;;;;5031876;28;20279;-34
2021/03/19 13:00:20;;;;;;;1999.90;999.90;;;;;;;;;;5016049;28;20234;-34
2021/03/19 13:03:06;;;;;;;1999.90;999.90;;;;;;;;;;5022339;28;20295;-35
2021/03/19 13:05:52;;;;;;;1999.90;999.90;;;;;;;;;;5016455;28;20210;-35
2021/03/19 13:08:37;;;;;;;1999.90;999.90;;;;;;;;;;5017070;28;20202;-33
2021/03/19 13:11:25;;;;;;;1999.90;999.90;;;;;;;;;;5019820;28;20224;-38
2021/03/19 13:14:15;;;;;;;1999.90;999.90;;;;;;;;;;5039609;28;20236;-35
2021/03/19 13:17:01;;;;;;;1999.90;999.90;;;;;;;;;;5059893;28;20200;-35
2021/03/19 13:19:47;;;;;;;1999.90;999.90;;;;;;;;;;5059812;28;20379;-33
2021/03/19 13:22:33;;;;;;;1999.90;999.90;;;;;;;;;;5059564;28;20198;-35
2021/03/19 13:25:23;;;;;;;1999.90;999.90;;;;;;;;;;5059606;28;20216;-37
2021/03/19 13:28:09;;;;;;;1999.90;999.90;;;;;;;;;;5059299;28;20201;-39
2021/03/19 13:31:11;;;;;;;1999.90;999.90;;;;;;;;;;5059322;28;20498;-35
2021/03/19 13:33:57;;;;;;;1999.90;999.90;;;;;;;;;;5059646;28;20205;-35
2021/03/19 13:36:46;;;;;;;1999.90;999.90;;;;;;;;;;5059294;28;20203;-37
2021/03/19 13:39:35;;;;;;;1999.90;999.90;;;;;;;;;;5059591;28;20204;-35
2021/03/19 13:42:20;;;;;;;1999.90;999.90;;;;;;;;;;5059349;28;20756;-34
2021/03/19 13:45:07;;;;;;;1999.90;999.90;;;;;;;;;;5058764;28;20220;-38
2021/03/19 13:47:59;;;;;;;1999.90;999.90;;;;;;;;;;5059072;28;20196;-36
2021/03/19 13:50:48;;;;;;;1999.90;999.90;;;;;;;;;;5058924;28;20201;-37
2021/03/19 13:53:33;;;;;;;1999.90;999.90;;;;;;;;;;5059068;28;20201;-36
2021/03/19 13:56:24;;;;;;;1999.90;999.90;;;;;;;;;;5059096;28;20220;-34
2021/03/19 13:59:09;;;;;;;1999.90;999.90;;;;;;;;;;5058642;28;20614;-34
2021/03/19 14:01:55;;;;;;;1999.90;999.90;;;;;;;;;;5058754;28;20263;-36
2021/03/19 14:04:42;;;;;;;1999.90;999.90;;;;;;;;;;5058359;28;20309;-37
2021/03/19 14:07:28;;;;;;;1999.90;999.90;;;;;;;;;;5058573;28;20199;-33
2021/03/19 14:10:14;;;;;;;1999.90;999.90;;;;;;;;;;5058305;28;20354;-35
2021/03/19 14:13:00;;;;;;;1999.90;999.90;;;;;;;;;;5058255;28;20226;-34
2021/03/19 14:15:46;;;;;;;1999.90;999.90;;;;;;;;;;5058350;28;20257;-39
2021/03/19 14:18:37;;;;;;;1999.90;999.90;;;;;;;;;;5058639;28;20197;-38
2021/03/19 14:21:28;;;;;;;1999.90;999.90;;;;;;;;;;5057286;28;20636;-37
2021/03/19 14:24:14;;;;;;;1999.90;999.90;;;;;;;;;;5058493;28;20201;-40
2021/03/19 14:27:02;;;;;;;1999.90;999.90;;;;;;;;;;5071667;28;20224;-38
2021/03/19 14:29:53;;;;;;;1999.90;999.90;;;;;;;;;;5078063;28;20200;-36
2021/03/19 14:32:40;;;;;;;1999.90;999.90;;;;;;;;;;5077787;28;20212;-33
2021/03/19 14:35:31;;;;;;;1999.90;999.90;;;;;;;;;;5066235;28;20205;-34
2021/03/19 14:38:18;;;;;;;1999.90;999.90;;;;;;;;;;5077866;28;20203;-36
2021/03/19 14:41:03;;;;;;;1999.90;999.90;;;;;;;;;;5077715;28;20233;-35
2021/03/19 14:43:52;;;;;;;1999.90;999.90;;;;;;;;;;5077665;28;20604;-33
2021/03/19 14:46:58;;;;;;;1999.90;999.90;;;;;;;;;;5077976;28;20208;-34
2021/03/19 14:49:44;;;;;;;1999.90;999.90;;;;;;;;;;5077952;28;20202;-36
2021/03/19 14:52:32;;;;;;;1999.90;999.90;;;;;;;;;;5077720;28;20224;-34
2021/03/19 14:55:29;;;;;;;1999.90;999.90;;;;;;;;;;5078060;28;20348;-36
2021/03/19 14:58:17;;;;;;;1999.90;999.90;;;;;;;;;;5077327;28;20204;-35
2021/03/19 15:01:03;;;;;;;1999.90;999.90;;;;;;;;;;5077996;28;20776;-33
2021/03/19 15:03:51;;;;;;;1999.90;999.90;;;;;;;;;;5077161;28;20590;-33
2021/03/19 15:06:40;;;;;;;1999.90;999.90;;;;;;;;;;5077469;28;20279;-36
2021/03/19 15:09:25;;;;;;;1999.90;999.90;;;;;;;;;;5077049;28;20250;-35
2021/03/19 15:12:15;;;;;;;1999.90;999.90;;;;;;;;;;5076547;28;20479;-33
2021/03/19 15:15:01;;;;;;;1999.90;999.90;;;;;;;;;;5077336;28;20484;-36
2021/03/19 15:17:52;;;;;;;1999.90;999.90;;;;;;;;;;5067729;28;20355;-35
2021/03/19 15:20:47;;;;;;;1999.90;999.90;;;;;;;;;;5056697;28;20236;-38
2021/03/19 15:23:40;;;;;;;1999.90;999.90;;;;;;;;;;5056794;28;20339;-36
2021/03/19 15:26:27;;;;;;;1999.90;999.90;;;;;;;;;;5064037;28;20269;-35
2021/03/19 15:29:14;;;;;;;1999.90;999.90;;;;;;;;;;5077316;28;20204;-33
2021/03/19 15:32:01;;;;;;;1999.90;999.90;;;;;;;;;;5074704;28;20592;-35
2021/03/19 15:34:47;;;;;;;1999.90;999.90;;;;;;;;;;5076435;28;20204;-32
2021/03/19 15:37:33;;;;;;;1999.90;999.90;;;;;;;;;;5073468;28;20254;-35
2021/03/19 15:40:23;;;;;;;1999.90;999.90;;;;;;;;;;5067605;28;20575;-37
2021/03/19 15:43:09;;;;;;;1999.90;999.90;;;;;;;;;;5077065;28;20601;-33
2021/03/19 15:45:56;;;;;;;1999.90;999.90;;;;;;;;;;5076380;28;20370;-35
2021/03/19 15:48:43;;;;;;;1999.90;999.90;;;;;;;;;;5076883;28;20205;-34
2021/03/19 15:51:29;;;;;;;1999.90;999.90;;;;;;;;;;5076670;28;20202;-35